Ashville, Ohio
Current Conditions -  °F | °C
As of 3:15 AM on Saturday 29 Nov 2014 (Local Time) from KLCK Reporting Station
Scattered Clouds Scattered Clouds  
Wind Chill: 26°   Ceiling: Unl
Heat Index: 31°   Visibility: 10mi
Dew Point: 21°   Wind: 5mph
Humidity: 66%   Direction: 170°S
Pressure: 30.09"   Gusts: NA
Location:  39.72°N, 82.95°W
Report Text: KLCK 290815Z AUTO 17004KT 10SM SCT120 M01/M06 A3009 RMK AO2 T10071063
Loading
Personal Weather Stations






























Interactive Weather Map New forecast layout! Learn more

10-Day Weather Forecast

Advertisements
Track Severe Weather on mobile